Unbenanntes Dokument
Flugplatz Bielefeld Platzwetter

 

Aktuelles Platzwetter am Flugplatz Bielefeld EDLI

21.11.18 ,19:54 Uhr

METAR EDLI 211954Z 09010KT 8000 ///011 M00/M00 Q0000

 

Windwerte

 

Wolkenuntergrenzen

Wind aktuell:080 ° mit 8 kt
Wind 10 min Extrem:
50 ° bis 120 ° mit 5 kt bis 16 kt
Seitenwindkomponente: -3.2 kt
Wolkengrenze 1: 900 ft
Wolkengrenze 2: 1600 ft
Wolkengrenze 3:

Webcam

Temperatur

       

Sichtweite:

8.000 Meter

n.b °C
Taupunkt: n.b °C
Luftfeuchtigkeit: n.b %

Luftdruck:

QNH: n.b hPa (-29.50 in Hg)
QFE: n.b hPa (-29.50 in Hg)

Diese Daten werden automatisch ermittelt bzw. übertragen und sind nicht geprüft. Für die Richtigkeit wird daher keine Gewähr übernommen. Sie ersetzen im übrigen nicht die Flugwetterberatung. Alle Zeitangaben beziehen sich auf UTC. Die Seite wird einmal die Minute aktualisiert! Sollten Sie ein ältere Seite haben, so drücken Sie bitte auf den Reload Button Ihres Browsers!